PWSweather.com
Personal Weather Stations
Station Observations
BWSWX1
Teesside, BillinghamGB TS23 1DL

TeessideBillinghamGB TS23 1DL

Lat: 54.588219, Lon: -1.289528

Elevation: 39

Station Type: Davis Vantage Pro2 Plus

http://billinghamweather.com/index.php

Latest ConditionsUpdated 10:20:02 PM GMT Wednesday, Dec 12, 2018
Currently Today's Max Today's Min Today's Average
Temperature 37.4°F3.0°C 45.8°F7.7°C 37.4°F3.0°C 41.6°F5.3°C
Dew Point 30.8°F-0.7°C 39.5°F4.2°C 30.8°F-0.7°C 36.7°F2.6°C
Winds 1.2 mph ESE1.9 kmh ESE 5.8 mph -9.3 kmh - - 2.1 mph 3.4 kmh
Wind Gusts 3.5 mph5.6 kmh 11.5 mph18.5 kmh - -
Humidity 77% 94% 74% 83%
Pressure 30.10 in1019.3 mb 30.19 in1022.4 mb 30.10 in1019.3 mb -
Hour Temp Dew Point Humidity Winds Wind Gusts Pressure Precip Precip Rate Daily Precip Total
10:20 PM 37.4°F3.0°C 30.8°F-0.7°C 77% 1.2 mph ESE1.9 kmh ESE 3.5 mph5.6 kmh 30.10 in1019.3 mb - 0.00 in0.0 mm 0.00 in0.0 mm
10:10 PM 37.7°F3.2°C 31.1°F-0.5°C 77% 1.2 mph SE1.9 kmh SE 3.5 mph5.6 kmh 30.10 in1019.3 mb - 0.00 in0.0 mm 0.00 in0.0 mm
10:00 PM 37.9°F3.3°C 31.0°F-0.6°C 76% Calm Calm -- 30.11 in1019.6 mb - 0.00 in0.0 mm 0.00 in0.0 mm
09:50 PM 37.9°F3.3°C 31.0°F-0.6°C 76% 2.3 mph SE3.7 kmh SE 6.9 mph11.1 kmh 30.11 in1019.6 mb - 0.00 in0.0 mm 0.00 in0.0 mm
09:40 PM 37.9°F3.3°C 31.0°F-0.6°C 76% 2.3 mph SE3.7 kmh SE 4.6 mph7.4 kmh 30.11 in1019.6 mb - 0.00 in0.0 mm 0.00 in0.0 mm
09:30 PM 37.9°F3.3°C 31.0°F-0.6°C 76% 1.2 mph SE1.9 kmh SE 4.6 mph7.4 kmh 30.12 in1020.0 mb - 0.00 in0.0 mm 0.00 in0.0 mm
09:20 PM 37.8°F3.2°C 31.2°F-0.4°C 77% 2.3 mph SE3.7 kmh SE 3.5 mph5.6 kmh 30.12 in1020.0 mb - 0.00 in0.0 mm 0.00 in0.0 mm
09:10 PM 37.7°F3.2°C 31.1°F-0.5°C 77% 3.5 mph SE5.6 kmh SE 3.5 mph5.6 kmh 30.12 in1020.0 mb - 0.00 in0.0 mm 0.00 in0.0 mm
09:00 PM 37.9°F3.3°C 31.0°F-0.6°C 76% 2.3 mph ESE3.7 kmh ESE 3.5 mph5.6 kmh 30.12 in1020.0 mb - 0.00 in0.0 mm 0.00 in0.0 mm
08:50 PM 38.1°F3.4°C 31.2°F-0.4°C 76% Calm Calm 2.3 mph3.7 kmh 30.13 in1020.3 mb - 0.00 in0.0 mm 0.00 in0.0 mm
08:40 PM 38.4°F3.6°C 31.2°F-0.4°C 75% 1.2 mph ESE1.9 kmh ESE 3.5 mph5.6 kmh 30.14 in1020.7 mb - 0.00 in0.0 mm 0.00 in0.0 mm
08:30 PM 38.6°F3.7°C 31.4°F-0.3°C 75% 2.3 mph ESE3.7 kmh ESE 3.5 mph5.6 kmh 30.14 in1020.7 mb - 0.00 in0.0 mm 0.00 in0.0 mm
08:20 PM 38.7°F3.7°C 31.8°F-0.1°C 76% 1.2 mph SE1.9 kmh SE 3.5 mph5.6 kmh 30.14 in1020.7 mb - 0.00 in0.0 mm 0.00 in0.0 mm
08:10 PM 38.8°F3.8°C 31.9°F-0.1°C 76% 1.2 mph SE1.9 kmh SE 5.8 mph9.3 kmh 30.14 in1020.7 mb - 0.00 in0.0 mm 0.00 in0.0 mm
08:00 PM 38.8°F3.8°C 31.9°F-0.1°C 76% 1.2 mph SE1.9 kmh SE 3.5 mph5.6 kmh 30.14 in1020.7 mb - 0.00 in0.0 mm 0.00 in0.0 mm
07:50 PM 38.7°F3.7°C 32.1°F0.1°C 77% 1.2 mph SE1.9 kmh SE 3.5 mph5.6 kmh 30.14 in1020.7 mb - 0.00 in0.0 mm 0.00 in0.0 mm
07:40 PM 38.8°F3.8°C 32.5°F0.3°C 78% 4.6 mph SE7.4 kmh SE 5.8 mph9.3 kmh 30.13 in1020.3 mb - 0.00 in0.0 mm 0.00 in0.0 mm
07:30 PM 38.8°F3.8°C 32.5°F0.3°C 78% 2.3 mph SE3.7 kmh SE 3.5 mph5.6 kmh 30.13 in1020.3 mb - 0.00 in0.0 mm 0.00 in0.0 mm
07:20 PM 38.9°F3.8°C 32.9°F0.5°C 79% 2.3 mph SE3.7 kmh SE 4.6 mph7.4 kmh 30.14 in1020.7 mb - 0.00 in0.0 mm 0.00 in0.0 mm
07:10 PM 39.0°F3.9°C 33.0°F0.6°C 79% 3.5 mph SE5.6 kmh SE 3.5 mph5.6 kmh 30.14 in1020.7 mb - 0.00 in0.0 mm 0.00 in0.0 mm
07:00 PM 39.1°F3.9°C 32.8°F0.4°C 78% 3.5 mph ESE5.6 kmh ESE 4.6 mph7.4 kmh 30.13 in1020.3 mb - 0.00 in0.0 mm 0.00 in0.0 mm
06:50 PM 39.3°F4.1°C 33.0°F0.6°C 78% 1.2 mph SE1.9 kmh SE 3.5 mph5.6 kmh 30.13 in1020.3 mb - 0.00 in0.0 mm 0.00 in0.0 mm
06:40 PM 39.5°F4.2°C 32.9°F0.5°C 77% 1.2 mph SE1.9 kmh SE 1.2 mph1.9 kmh 30.13 in1020.3 mb - 0.00 in0.0 mm 0.00 in0.0 mm
06:30 PM 39.8°F4.3°C 33.2°F0.7°C 77% 1.2 mph ESE1.9 kmh ESE 2.3 mph3.7 kmh 30.13 in1020.3 mb - 0.00 in0.0 mm 0.00 in0.0 mm
06:20 PM 40.0°F4.4°C 33.4°F0.8°C 77% 4.6 mph SE7.4 kmh SE 4.6 mph7.4 kmh 30.14 in1020.7 mb - 0.00 in0.0 mm 0.00 in0.0 mm
06:10 PM 40.0°F4.4°C 33.4°F0.8°C 77% 3.5 mph SE5.6 kmh SE 3.5 mph5.6 kmh 30.14 in1020.7 mb - 0.00 in0.0 mm 0.00 in0.0 mm
06:00 PM 39.8°F4.3°C 32.8°F0.4°C 76% 2.3 mph SE3.7 kmh SE 3.5 mph5.6 kmh 30.14 in1020.7 mb - 0.00 in0.0 mm 0.00 in0.0 mm
05:50 PM 40.0°F4.4°C 33.0°F0.6°C 76% Calm Calm 2.3 mph3.7 kmh 30.14 in1020.7 mb - 0.00 in0.0 mm 0.00 in0.0 mm
05:40 PM 40.2°F4.6°C 33.2°F0.7°C 76% Calm Calm 1.2 mph1.9 kmh 30.14 in1020.7 mb - 0.00 in0.0 mm 0.00 in0.0 mm
05:30 PM 40.4°F4.7°C 33.8°F1.0°C 77% 1.2 mph SE1.9 kmh SE 2.3 mph3.7 kmh 30.14 in1020.7 mb - 0.00 in0.0 mm 0.00 in0.0 mm
05:20 PM 40.5°F4.7°C 34.2°F1.2°C 78% 3.5 mph SE5.6 kmh SE 6.9 mph11.1 kmh 30.14 in1020.7 mb - 0.00 in0.0 mm 0.00 in0.0 mm
05:10 PM 40.8°F4.9°C 34.5°F1.4°C 78% 2.3 mph SSE3.7 kmh SSE 4.6 mph7.4 kmh 30.14 in1020.7 mb - 0.00 in0.0 mm 0.00 in0.0 mm
05:00 PM 41.0°F5.0°C 34.6°F1.4°C 78% 3.5 mph ESE5.6 kmh ESE 5.8 mph9.3 kmh 30.14 in1020.7 mb - 0.00 in0.0 mm 0.00 in0.0 mm
04:50 PM 41.1°F5.1°C 34.5°F1.4°C 77% 3.5 mph ESE5.6 kmh ESE 5.8 mph9.3 kmh 30.14 in1020.7 mb - 0.00 in0.0 mm 0.00 in0.0 mm
04:40 PM 41.2°F5.1°C 34.5°F1.4°C 77% 4.6 mph ESE7.4 kmh ESE 6.9 mph11.1 kmh 30.14 in1020.7 mb - 0.00 in0.0 mm 0.00 in0.0 mm
04:30 PM 41.3°F5.2°C 34.6°F1.4°C 77% 2.3 mph SE3.7 kmh SE 4.6 mph7.4 kmh 30.14 in1020.7 mb - 0.00 in0.0 mm 0.00 in0.0 mm
04:20 PM 41.6°F5.3°C 34.9°F1.6°C 77% 2.3 mph ESE3.7 kmh ESE 3.5 mph5.6 kmh 30.14 in1020.7 mb - 0.00 in0.0 mm 0.00 in0.0 mm
04:10 PM 41.9°F5.5°C 34.9°F1.6°C 76% Calm Calm 3.5 mph5.6 kmh 30.14 in1020.7 mb - 0.00 in0.0 mm 0.00 in0.0 mm
04:00 PM 42.2°F5.7°C 35.2°F1.8°C 76% 2.3 mph SE3.7 kmh SE 3.5 mph5.6 kmh 30.14 in1020.7 mb - 0.00 in0.0 mm 0.00 in0.0 mm
03:50 PM 42.4°F5.8°C 35.0°F1.7°C 75% 2.3 mph SE3.7 kmh SE 6.9 mph11.1 kmh 30.14 in1020.7 mb - 0.00 in0.0 mm 0.00 in0.0 mm
03:40 PM 42.7°F5.9°C 35.0°F1.7°C 74% Calm Calm 1.2 mph1.9 kmh 30.14 in1020.7 mb - 0.00 in0.0 mm 0.00 in0.0 mm
03:30 PM 42.9°F6.1°C 35.2°F1.8°C 74% 3.5 mph SE5.6 kmh SE 3.5 mph5.6 kmh 30.14 in1020.7 mb - 0.00 in0.0 mm 0.00 in0.0 mm
03:20 PM 43.2°F6.2°C 35.5°F1.9°C 74% 4.6 mph SE7.4 kmh SE 8.1 mph13.0 kmh 30.13 in1020.3 mb - 0.00 in0.0 mm 0.00 in0.0 mm
03:10 PM 43.4°F6.3°C 35.7°F2.1°C 74% 5.8 mph SE9.3 kmh SE 11.5 mph18.5 kmh 30.14 in1020.7 mb - 0.00 in0.0 mm 0.00 in0.0 mm
03:00 PM 43.7°F6.5°C 36.0°F2.2°C 74% 4.6 mph SE7.4 kmh SE 8.1 mph13.0 kmh 30.14 in1020.7 mb - 0.00 in0.0 mm 0.00 in0.0 mm
02:50 PM 44.0°F6.7°C 36.2°F2.3°C 74% 2.3 mph SE3.7 kmh SE 5.8 mph9.3 kmh 30.14 in1020.7 mb - 0.00 in0.0 mm 0.00 in0.0 mm
02:40 PM 44.3°F6.8°C 36.9°F2.7°C 75% 1.2 mph SSE1.9 kmh SSE 3.5 mph5.6 kmh 30.14 in1020.7 mb - 0.00 in0.0 mm 0.00 in0.0 mm
02:30 PM 44.6°F7.0°C 37.2°F2.9°C 75% 1.2 mph SE1.9 kmh SE 3.5 mph5.6 kmh 30.14 in1020.7 mb - 0.00 in0.0 mm 0.00 in0.0 mm
02:20 PM 44.8°F7.1°C 37.0°F2.8°C 74% 4.6 mph S7.4 kmh S 8.1 mph13.0 kmh 30.14 in1020.7 mb - 0.00 in0.0 mm 0.00 in0.0 mm
02:10 PM 44.9°F7.2°C 37.5°F3.1°C 75% 5.8 mph SSE9.3 kmh SSE 11.5 mph18.5 kmh 30.14 in1020.7 mb - 0.00 in0.0 mm 0.00 in0.0 mm
02:00 PM 45.0°F7.2°C 37.6°F3.1°C 75% 5.8 mph SE9.3 kmh SE 9.2 mph14.8 kmh 30.14 in1020.7 mb - 0.00 in0.0 mm 0.00 in0.0 mm
01:50 PM 45.1°F7.3°C 37.3°F2.9°C 74% 3.5 mph SE5.6 kmh SE 4.6 mph7.4 kmh 30.14 in1020.7 mb - 0.00 in0.0 mm 0.00 in0.0 mm
01:40 PM 45.2°F7.3°C 37.4°F3.0°C 74% 3.5 mph SSE5.6 kmh SSE 9.2 mph14.8 kmh 30.15 in1021.0 mb - 0.00 in0.0 mm 0.00 in0.0 mm
01:30 PM 45.4°F7.4°C 37.6°F3.1°C 74% 4.6 mph SE7.4 kmh SE 11.5 mph18.5 kmh 30.15 in1021.0 mb - 0.00 in0.0 mm 0.00 in0.0 mm
01:20 PM 45.5°F7.5°C 37.7°F3.2°C 74% 4.6 mph SE7.4 kmh SE 10.4 mph16.7 kmh 30.15 in1021.0 mb - 0.00 in0.0 mm 0.00 in0.0 mm
01:10 PM 45.5°F7.5°C 38.0°F3.3°C 75% 3.5 mph SE5.6 kmh SE 6.9 mph11.1 kmh 30.16 in1021.3 mb - 0.00 in0.0 mm 0.00 in0.0 mm
01:00 PM 45.5°F7.5°C 38.0°F3.3°C 75% 1.2 mph SE1.9 kmh SE 3.5 mph5.6 kmh 30.16 in1021.3 mb - 0.00 in0.0 mm 0.00 in0.0 mm
12:50 PM 45.5°F7.5°C 38.0°F3.3°C 75% 2.3 mph SSE3.7 kmh SSE 8.1 mph13.0 kmh 30.16 in1021.3 mb - 0.00 in0.0 mm 0.00 in0.0 mm
12:40 PM 45.4°F7.4°C 37.9°F3.3°C 75% 4.6 mph SE7.4 kmh SE 9.2 mph14.8 kmh 30.16 in1021.3 mb - 0.00 in0.0 mm 0.00 in0.0 mm
12:30 PM 45.4°F7.4°C 38.3°F3.5°C 76% 2.3 mph SE3.7 kmh SE 9.2 mph14.8 kmh 30.16 in1021.3 mb - 0.00 in0.0 mm 0.00 in0.0 mm
12:20 PM 45.5°F7.5°C 38.4°F3.6°C 76% 2.3 mph SSE3.7 kmh SSE 4.6 mph7.4 kmh 30.17 in1021.7 mb - 0.00 in0.0 mm 0.00 in0.0 mm
12:10 PM 45.6°F7.6°C 38.5°F3.6°C 76% 4.6 mph S7.4 kmh S 6.9 mph11.1 kmh 30.18 in1022.0 mb - 0.00 in0.0 mm 0.00 in0.0 mm
12:00 PM 45.8°F7.7°C 38.6°F3.7°C 76% 3.5 mph S5.6 kmh S 3.5 mph5.6 kmh 30.18 in1022.0 mb - 0.00 in0.0 mm 0.00 in0.0 mm
11:50 AM 45.5°F7.5°C 39.0°F3.9°C 78% 2.3 mph SSE3.7 kmh SSE 4.6 mph7.4 kmh 30.18 in1022.0 mb - 0.00 in0.0 mm 0.00 in0.0 mm
11:40 AM 45.1°F7.3°C 38.6°F3.7°C 78% 4.6 mph SE7.4 kmh SE 10.4 mph16.7 kmh 30.18 in1022.0 mb - 0.00 in0.0 mm 0.00 in0.0 mm
11:30 AM 44.7°F7.1°C 38.6°F3.7°C 79% 3.5 mph S5.6 kmh S 9.2 mph14.8 kmh 30.18 in1022.0 mb - 0.00 in0.0 mm 0.00 in0.0 mm
11:20 AM 44.5°F6.9°C 38.4°F3.6°C 79% 3.5 mph SE5.6 kmh SE 8.1 mph13.0 kmh 30.18 in1022.0 mb - 0.00 in0.0 mm 0.00 in0.0 mm
11:10 AM 44.3°F6.8°C 38.5°F3.6°C 80% 4.6 mph SE7.4 kmh SE 8.1 mph13.0 kmh 30.18 in1022.0 mb - 0.00 in0.0 mm 0.00 in0.0 mm
11:00 AM 44.2°F6.8°C 38.4°F3.6°C 80% 3.5 mph SSE5.6 kmh SSE 6.9 mph11.1 kmh 30.18 in1022.0 mb - 0.00 in0.0 mm 0.00 in0.0 mm
10:50 AM 44.0°F6.7°C 38.5°F3.6°C 81% 3.5 mph SE5.6 kmh SE 6.9 mph11.1 kmh 30.18 in1022.0 mb - 0.00 in0.0 mm 0.00 in0.0 mm
10:40 AM 43.8°F6.6°C 38.7°F3.7°C 82% 2.3 mph SE3.7 kmh SE 4.6 mph7.4 kmh 30.18 in1022.0 mb - 0.00 in0.0 mm 0.00 in0.0 mm
10:30 AM 43.8°F6.6°C 39.0°F3.9°C 83% 2.3 mph ESE3.7 kmh ESE 3.5 mph5.6 kmh 30.18 in1022.0 mb - 0.00 in0.0 mm 0.00 in0.0 mm
10:20 AM 43.7°F6.5°C 38.8°F3.8°C 83% 2.3 mph SSE3.7 kmh SSE 5.8 mph9.3 kmh 30.18 in1022.0 mb - 0.00 in0.0 mm 0.00 in0.0 mm
10:10 AM 43.5°F6.4°C 39.0°F3.9°C 84% 3.5 mph SE5.6 kmh SE 6.9 mph11.1 kmh 30.18 in1022.0 mb - 0.00 in0.0 mm 0.00 in0.0 mm
10:00 AM 43.2°F6.2°C 39.0°F3.9°C 85% 3.5 mph SE5.6 kmh SE 3.5 mph5.6 kmh 30.18 in1022.0 mb - 0.00 in0.0 mm 0.00 in0.0 mm
09:50 AM 43.1°F6.2°C 39.2°F4.0°C 86% 2.3 mph SE3.7 kmh SE 3.5 mph5.6 kmh 30.18 in1022.0 mb - 0.00 in0.0 mm 0.00 in0.0 mm
09:40 AM 42.9°F6.1°C 39.0°F3.9°C 86% 1.2 mph SE1.9 kmh SE 2.3 mph3.7 kmh 30.18 in1022.0 mb - 0.00 in0.0 mm 0.00 in0.0 mm
09:30 AM 42.8°F6.0°C 38.9°F3.8°C 86% Calm Calm 1.2 mph1.9 kmh 30.18 in1022.0 mb - 0.00 in0.0 mm 0.00 in0.0 mm
09:20 AM 42.7°F5.9°C 39.1°F3.9°C 87% 1.2 mph ESE1.9 kmh ESE 3.5 mph5.6 kmh 30.18 in1022.0 mb - 0.00 in0.0 mm 0.00 in0.0 mm
09:10 AM 42.6°F5.9°C 39.0°F3.9°C 87% Calm Calm 2.3 mph3.7 kmh 30.18 in1022.0 mb - 0.00 in0.0 mm 0.00 in0.0 mm
09:00 AM 42.5°F5.8°C 38.9°F3.8°C 87% 2.3 mph E3.7 kmh E 3.5 mph5.6 kmh 30.18 in1022.0 mb - 0.00 in0.0 mm 0.00 in0.0 mm
08:50 AM 42.4°F5.8°C 38.8°F3.8°C 87% 2.3 mph SE3.7 kmh SE 3.5 mph5.6 kmh 30.18 in1022.0 mb - 0.00 in0.0 mm 0.00 in0.0 mm
08:40 AM 42.4°F5.8°C 38.8°F3.8°C 87% 1.2 mph SE1.9 kmh SE 3.5 mph5.6 kmh 30.18 in1022.0 mb - 0.00 in0.0 mm 0.00 in0.0 mm
08:30 AM 42.4°F5.8°C 39.1°F3.9°C 88% 1.2 mph SSE1.9 kmh SSE 3.5 mph5.6 kmh 30.19 in1022.4 mb - 0.00 in0.0 mm 0.00 in0.0 mm
08:20 AM 42.3°F5.7°C 39.0°F3.9°C 88% 1.2 mph SE1.9 kmh SE 3.5 mph5.6 kmh 30.18 in1022.0 mb - 0.00 in0.0 mm 0.00 in0.0 mm
08:10 AM 42.3°F5.7°C 39.0°F3.9°C 88% 1.2 mph ESE1.9 kmh ESE 3.5 mph5.6 kmh 30.18 in1022.0 mb - 0.00 in0.0 mm 0.00 in0.0 mm
08:00 AM 42.2°F5.7°C 38.9°F3.8°C 88% 2.3 mph SE3.7 kmh SE 3.5 mph5.6 kmh 30.18 in1022.0 mb - 0.00 in0.0 mm 0.00 in0.0 mm
07:50 AM 42.1°F5.6°C 38.8°F3.8°C 88% 2.3 mph SE3.7 kmh SE 5.8 mph9.3 kmh 30.18 in1022.0 mb - 0.00 in0.0 mm 0.00 in0.0 mm
07:40 AM 42.0°F5.6°C 38.7°F3.7°C 88% 1.2 mph SE1.9 kmh SE 1.2 mph1.9 kmh 30.18 in1022.0 mb - 0.00 in0.0 mm 0.00 in0.0 mm
07:30 AM 42.1°F5.6°C 38.8°F3.8°C 88% 2.3 mph SE3.7 kmh SE 3.5 mph5.6 kmh 30.17 in1021.7 mb - 0.00 in0.0 mm 0.00 in0.0 mm
07:20 AM 42.0°F5.6°C 38.7°F3.7°C 88% 1.2 mph S1.9 kmh S 3.5 mph5.6 kmh 30.17 in1021.7 mb - 0.00 in0.0 mm 0.00 in0.0 mm
07:10 AM 42.1°F5.6°C 38.8°F3.8°C 88% 3.5 mph SE5.6 kmh SE 9.2 mph14.8 kmh 30.16 in1021.3 mb - 0.00 in0.0 mm 0.00 in0.0 mm
07:00 AM 42.1°F5.6°C 38.8°F3.8°C 88% 4.6 mph SE7.4 kmh SE 8.1 mph13.0 kmh 30.17 in1021.7 mb - 0.00 in0.0 mm 0.00 in0.0 mm
06:50 AM 42.1°F5.6°C 38.8°F3.8°C 88% 2.3 mph SE3.7 kmh SE 4.6 mph7.4 kmh 30.17 in1021.7 mb - 0.00 in0.0 mm 0.00 in0.0 mm
06:40 AM 42.1°F5.6°C 39.1°F3.9°C 89% 4.6 mph SE7.4 kmh SE 5.8 mph9.3 kmh 30.16 in1021.3 mb - 0.00 in0.0 mm 0.00 in0.0 mm
06:30 AM 42.1°F5.6°C 39.1°F3.9°C 89% 2.3 mph SE3.7 kmh SE 3.5 mph5.6 kmh 30.16 in1021.3 mb - 0.00 in0.0 mm 0.00 in0.0 mm
06:20 AM 42.0°F5.6°C 39.0°F3.9°C 89% 2.3 mph ESE3.7 kmh ESE 4.6 mph7.4 kmh 30.16 in1021.3 mb - 0.00 in0.0 mm 0.00 in0.0 mm
06:10 AM 41.9°F5.5°C 39.2°F4.0°C 90% 2.3 mph SE3.7 kmh SE 3.5 mph5.6 kmh 30.16 in1021.3 mb - 0.00 in0.0 mm 0.00 in0.0 mm
06:00 AM 41.9°F5.5°C 39.2°F4.0°C 90% 3.5 mph SE5.6 kmh SE 6.9 mph11.1 kmh 30.16 in1021.3 mb - 0.00 in0.0 mm 0.00 in0.0 mm
05:50 AM 41.7°F5.4°C 39.0°F3.9°C 90% 3.5 mph SE5.6 kmh SE 6.9 mph11.1 kmh 30.16 in1021.3 mb - 0.00 in0.0 mm 0.00 in0.0 mm
05:40 AM 41.7°F5.4°C 39.3°F4.1°C 91% Calm Calm 2.3 mph3.7 kmh 30.16 in1021.3 mb - 0.00 in0.0 mm 0.00 in0.0 mm
05:30 AM 41.6°F5.3°C 39.2°F4.0°C 91% 1.2 mph SE1.9 kmh SE 3.5 mph5.6 kmh 30.16 in1021.3 mb - 0.00 in0.0 mm 0.00 in0.0 mm
05:20 AM 41.5°F5.3°C 39.0°F3.9°C 91% 1.2 mph S1.9 kmh S 4.6 mph7.4 kmh 30.16 in1021.3 mb - 0.00 in0.0 mm 0.00 in0.0 mm
05:10 AM 41.3°F5.2°C 39.2°F4.0°C 92% 1.2 mph SSE1.9 kmh SSE 2.3 mph3.7 kmh 30.15 in1021.0 mb - 0.00 in0.0 mm 0.00 in0.0 mm
05:00 AM 41.1°F5.1°C 39.0°F3.9°C 92% 1.2 mph SE1.9 kmh SE 3.5 mph5.6 kmh 30.15 in1021.0 mb - 0.00 in0.0 mm 0.00 in0.0 mm
04:50 AM 40.9°F4.9°C 38.8°F3.8°C 92% 2.3 mph S3.7 kmh S 4.6 mph7.4 kmh 30.15 in1021.0 mb - 0.00 in0.0 mm 0.00 in0.0 mm
04:40 AM 40.7°F4.8°C 38.6°F3.7°C 92% Calm Calm 1.2 mph1.9 kmh 30.15 in1021.0 mb - 0.00 in0.0 mm 0.00 in0.0 mm
04:30 AM 40.5°F4.7°C 38.4°F3.6°C 92% Calm Calm -- 30.15 in1021.0 mb - 0.00 in0.0 mm 0.00 in0.0 mm
04:20 AM 40.4°F4.7°C 38.3°F3.5°C 92% 1.2 mph SE1.9 kmh SE 2.3 mph3.7 kmh 30.16 in1021.3 mb - 0.00 in0.0 mm 0.00 in0.0 mm
04:10 AM 40.3°F4.6°C 38.1°F3.4°C 92% Calm Calm 3.5 mph5.6 kmh 30.16 in1021.3 mb - 0.00 in0.0 mm 0.00 in0.0 mm
04:00 AM 40.0°F4.4°C 38.1°F3.4°C 93% 1.2 mph SE1.9 kmh SE 3.5 mph5.6 kmh 30.16 in1021.3 mb - 0.00 in0.0 mm 0.00 in0.0 mm
03:50 AM 39.7°F4.3°C 37.8°F3.2°C 93% 1.2 mph SE1.9 kmh SE 4.6 mph7.4 kmh 30.16 in1021.3 mb - 0.00 in0.0 mm 0.00 in0.0 mm
03:40 AM 39.7°F4.3°C 37.8°F3.2°C 93% Calm Calm -- 30.17 in1021.7 mb - 0.00 in0.0 mm 0.00 in0.0 mm
03:30 AM 39.7°F4.3°C 37.8°F3.2°C 93% 1.2 mph SE1.9 kmh SE 3.5 mph5.6 kmh 30.17 in1021.7 mb - 0.00 in0.0 mm 0.00 in0.0 mm
03:20 AM 39.8°F4.3°C 37.9°F3.3°C 93% 1.2 mph SE1.9 kmh SE 3.5 mph5.6 kmh 30.17 in1021.7 mb - 0.00 in0.0 mm 0.00 in0.0 mm
03:10 AM 39.9°F4.4°C 38.0°F3.3°C 93% 1.2 mph SE1.9 kmh SE 3.5 mph5.6 kmh 30.17 in1021.7 mb - 0.00 in0.0 mm 0.00 in0.0 mm
03:00 AM 39.9°F4.4°C 38.0°F3.3°C 93% 2.3 mph SE3.7 kmh SE 4.6 mph7.4 kmh 30.18 in1022.0 mb - 0.00 in0.0 mm 0.00 in0.0 mm
02:50 AM 40.0°F4.4°C 38.1°F3.4°C 93% 1.2 mph SSE1.9 kmh SSE 2.3 mph3.7 kmh 30.18 in1022.0 mb - 0.00 in0.0 mm 0.00 in0.0 mm
02:40 AM 40.0°F4.4°C 38.1°F3.4°C 93% 1.2 mph S1.9 kmh S 3.5 mph5.6 kmh 30.18 in1022.0 mb - 0.00 in0.0 mm 0.00 in0.0 mm
02:30 AM 40.0°F4.4°C 38.1°F3.4°C 93% Calm Calm 1.2 mph1.9 kmh 30.18 in1022.0 mb - 0.00 in0.0 mm 0.00 in0.0 mm
02:20 AM 40.1°F4.5°C 38.2°F3.4°C 93% Calm Calm -- 30.18 in1022.0 mb - 0.00 in0.0 mm 0.00 in0.0 mm
02:10 AM 40.2°F4.6°C 38.3°F3.5°C 93% 1.2 mph SE1.9 kmh SE 3.5 mph5.6 kmh 30.18 in1022.0 mb - 0.00 in0.0 mm 0.00 in0.0 mm
02:00 AM 40.3°F4.6°C 38.4°F3.6°C 93% Calm Calm -- 30.18 in1022.0 mb - 0.00 in0.0 mm 0.00 in0.0 mm
01:50 AM 40.6°F4.8°C 39.0°F3.9°C 94% Calm Calm -- 30.18 in1022.0 mb - 0.00 in0.0 mm 0.00 in0.0 mm
01:40 AM 40.9°F4.9°C 39.3°F4.1°C 94% Calm Calm -- 30.18 in1022.0 mb - 0.00 in0.0 mm 0.00 in0.0 mm
01:30 AM 41.0°F5.0°C 39.4°F4.1°C 94% Calm Calm -- 30.18 in1022.0 mb - 0.00 in0.0 mm 0.00 in0.0 mm
01:20 AM 41.1°F5.1°C 39.5°F4.2°C 94% Calm Calm -- 30.17 in1021.7 mb - 0.00 in0.0 mm 0.00 in0.0 mm
01:10 AM 41.1°F5.1°C 39.5°F4.2°C 94% Calm Calm -- 30.17 in1021.7 mb - 0.00 in0.0 mm 0.00 in0.0 mm
01:00 AM 41.1°F5.1°C 39.5°F4.2°C 94% Calm Calm 3.5 mph5.6 kmh 30.17 in1021.7 mb - 0.00 in0.0 mm 0.00 in0.0 mm
12:50 AM 41.1°F5.1°C 39.5°F4.2°C 94% Calm Calm -- 30.18 in1022.0 mb - 0.00 in0.0 mm 0.00 in0.0 mm
12:40 AM 41.0°F5.0°C 39.4°F4.1°C 94% 1.2 mph S1.9 kmh S 3.5 mph5.6 kmh 30.18 in1022.0 mb - 0.00 in0.0 mm 0.00 in0.0 mm
12:30 AM 41.0°F5.0°C 39.4°F4.1°C 94% Calm Calm 3.5 mph5.6 kmh 30.18 in1022.0 mb - 0.00 in0.0 mm 0.00 in0.0 mm
12:20 AM 41.0°F5.0°C 39.4°F4.1°C 94% 1.2 mph SE1.9 kmh SE 3.5 mph5.6 kmh 30.17 in1021.7 mb - 0.00 in0.0 mm 0.00 in0.0 mm
12:10 AM 41.0°F5.0°C 39.4°F4.1°C 94% Calm Calm 2.3 mph3.7 kmh 30.18 in1022.0 mb - 0.00 in0.0 mm 0.00 in0.0 mm
12:00 AM 40.9°F4.9°C 39.3°F4.1°C 94% Calm Calm 1.2 mph1.9 kmh 30.18 in1022.0 mb - 0.00 in0.0 mm 0.00 in0.0 mm